createdAt,value
2018-01-11T00:02:10.657Z,56.25
2018-01-11T00:04:38.292Z,65.43
2018-01-11T00:07:06.658Z,64.43
2018-01-11T00:09:34.297Z,62.38
2018-01-11T00:12:01.951Z,56.00
2018-01-11T00:14:29.547Z,66.00
2018-01-11T00:16:57.183Z,63.72
2018-01-11T00:19:24.767Z,67.95
2018-01-11T00:21:52.365Z,68.85
2018-01-11T00:24:20.783Z,67.40
2018-01-11T00:26:48.421Z,63.40
2018-01-11T00:29:16.769Z,63.60
2018-01-11T00:31:44.387Z,62.10
2018-01-11T00:34:12.002Z,59.88
2018-01-11T00:36:39.617Z,60.30
2018-01-11T00:39:07.200Z,50.25
2018-01-11T00:41:34.823Z,54.00
2018-01-11T00:44:03.199Z,49.45
2018-01-11T00:46:30.816Z,49.80
2018-01-11T00:48:58.448Z,44.33
2018-01-11T00:51:26.070Z,50.30
2018-01-11T00:53:53.681Z,48.55
2018-01-11T00:56:22.082Z,45.70
2018-01-11T00:58:49.679Z,45.95
2018-01-11T01:01:18.318Z,56.08
2018-01-11T01:03:45.928Z,51.97
2018-01-11T01:06:13.548Z,43.63
2018-01-11T01:08:41.145Z,50.67
2018-01-11T01:11:08.747Z,60.47
2018-01-11T01:13:36.373Z,46.83
2018-01-11T01:16:03.979Z,47.28
2018-01-11T01:18:31.606Z,46.50
2018-01-11T01:21:00.198Z,46.15
2018-01-11T01:23:27.798Z,51.05
2018-01-11T01:25:55.410Z,64.80
2018-01-11T01:28:23.062Z,51.58
2018-01-11T01:30:51.428Z,65.57
2018-01-11T01:33:19.044Z,69.12
2018-01-11T01:35:46.662Z,55.33
2018-01-11T01:38:14.291Z,65.53
2018-01-11T01:40:41.905Z,64.35
2018-01-11T01:43:10.300Z,53.63
2018-01-11T01:45:38.710Z,67.85
2018-01-11T01:48:06.315Z,71.22
2018-01-11T01:50:33.918Z,88.93
2018-01-11T01:53:02.300Z,71.53
2018-01-11T01:55:30.666Z,78.40
2018-01-11T01:57:59.062Z,71.05
2018-01-11T02:00:27.427Z,74.30
2018-01-11T02:02:56.038Z,65.75
2018-01-11T02:05:23.654Z,55.75
2018-01-11T02:07:51.293Z,66.85
2018-01-11T02:10:19.677Z,82.45
2018-01-11T02:12:47.432Z,74.45
2018-01-11T02:15:15.040Z,75.80
2018-01-11T02:17:42.702Z,85.93
2018-01-11T02:20:10.347Z,63.85
2018-01-11T02:22:37.958Z,65.75
2018-01-11T02:25:05.577Z,70.80
2018-01-11T02:27:33.212Z,63.90
2018-01-11T02:30:00.834Z,68.35
2018-01-11T02:32:28.431Z,66.72
2018-01-11T02:34:56.068Z,65.87
2018-01-11T02:37:23.685Z,79.32
2018-01-11T02:39:51.274Z,63.40
2018-01-11T02:42:18.897Z,73.20
2018-01-11T02:44:47.268Z,65.72
2018-01-11T02:47:14.859Z,60.97
2018-01-11T02:49:42.498Z,61.60
2018-01-11T02:52:10.110Z,50.60
2018-01-11T02:54:37.754Z,71.25
2018-01-11T02:57:06.145Z,53.00
2018-01-11T02:59:33.747Z,72.15
2018-01-11T03:02:01.347Z,75.50
2018-01-11T03:04:28.950Z,70.90
2018-01-11T03:06:56.535Z,77.68
2018-01-11T03:09:24.124Z,75.00
2018-01-11T03:11:51.731Z,79.85
2018-01-11T03:14:20.136Z,69.37
2018-01-11T03:16:47.754Z,80.75
2018-01-11T03:19:15.351Z,81.20
2018-01-11T03:21:43.727Z,67.72
2018-01-11T03:24:12.132Z,72.90
2018-01-11T03:26:39.947Z,74.80
2018-01-11T03:29:08.585Z,80.55
2018-01-11T03:31:36.172Z,81.03
2018-01-11T03:34:03.753Z,74.78
2018-01-11T03:36:31.362Z,71.72
2018-01-11T03:38:58.988Z,70.07
2018-01-11T03:41:26.646Z,51.63
2018-01-11T03:43:54.279Z,62.70
2018-01-11T03:46:22.908Z,67.85
2018-01-11T03:48:50.534Z,68.93
2018-01-11T03:51:18.138Z,68.30
2018-01-11T03:53:46.740Z,70.60
2018-01-11T03:56:14.350Z,69.30
2018-01-11T03:58:42.745Z,73.70
2018-01-11T04:01:10.368Z,50.42
2018-01-11T04:03:37.964Z,46.95
2018-01-11T04:06:06.329Z,49.60
2018-01-11T04:08:33.949Z,35.70
2018-01-11T04:11:01.589Z,34.65
2018-01-11T04:13:29.206Z,47.58
2018-01-11T04:15:56.821Z,51.05
2018-01-11T04:18:24.413Z,50.00
2018-01-11T04:20:52.080Z,61.90
2018-01-11T04:23:19.708Z,51.85
2018-01-11T04:25:48.080Z,71.55
2018-01-11T04:28:16.477Z,67.37
2018-01-11T04:30:44.855Z,65.75
2018-01-11T04:33:13.212Z,67.20
2018-01-11T04:35:40.817Z,65.55
2018-01-11T04:38:08.452Z,74.37
2018-01-11T04:40:36.088Z,75.32
2018-01-11T04:43:03.695Z,79.15
2018-01-11T04:45:32.103Z,63.42
2018-01-11T04:47:59.699Z,55.22
2018-01-11T04:50:27.287Z,50.97
2018-01-11T04:52:54.909Z,47.30
2018-01-11T04:55:22.560Z,48.38
2018-01-11T04:57:50.162Z,46.17
2018-01-11T05:00:17.789Z,41.00
2018-01-11T05:02:46.163Z,34.67
2018-01-11T05:05:14.554Z,28.33
2018-01-11T05:07:42.207Z,42.70
2018-01-11T05:10:10.592Z,27.15
2018-01-11T05:12:39.026Z,23.92
2018-01-11T05:15:06.677Z,23.30
2018-01-11T05:17:34.293Z,25.40
2018-01-11T05:20:01.922Z,38.47
2018-01-11T05:22:29.546Z,30.75
2018-01-11T05:24:57.911Z,45.20
2018-01-11T05:27:25.505Z,54.88
2018-01-11T05:29:53.164Z,49.30
2018-01-11T05:32:21.622Z,51.17
2018-01-11T05:34:49.240Z,40.95
2018-01-11T05:37:16.908Z,28.10
2018-01-11T05:39:44.540Z,30.02
2018-01-11T05:42:12.917Z,36.17
2018-01-11T05:44:41.327Z,42.70
2018-01-11T05:47:08.935Z,35.67
2018-01-11T05:49:36.550Z,28.20
2018-01-11T05:52:04.940Z,32.92
2018-01-11T05:54:32.584Z,25.27
2018-01-11T05:57:00.983Z,35.97
2018-01-11T05:59:28.630Z,40.15
2018-01-11T06:01:56.236Z,38.30
2018-01-11T06:04:23.892Z,34.30
2018-01-11T06:06:51.506Z,35.92
2018-01-11T06:09:19.134Z,32.50
2018-01-11T06:11:46.756Z,32.10
2018-01-11T06:14:14.334Z,28.05
2018-01-11T06:16:43.085Z,29.95
2018-01-11T06:19:10.907Z,25.33
2018-01-11T06:21:38.557Z,34.08
2018-01-11T06:24:06.922Z,31.48
2018-01-11T06:26:35.444Z,42.67
2018-01-11T06:29:03.717Z,28.77
2018-01-11T06:31:31.380Z,34.53
2018-01-11T06:34:01.201Z,34.47
2018-01-11T06:36:31.153Z,30.37
2018-01-11T06:39:11.345Z,31.25
2018-01-11T06:41:40.724Z,32.05
2018-01-11T06:44:11.136Z,28.17
2018-01-11T06:46:40.038Z,29.63
2018-01-11T06:49:07.865Z,24.25
2018-01-11T06:51:39.948Z,24.37
2018-01-11T06:54:09.448Z,31.90
2018-01-11T06:56:40.323Z,40.47
2018-01-11T06:59:08.205Z,32.90
2018-01-11T07:01:35.970Z,32.80
2018-01-11T07:04:03.697Z,30.42
2018-01-11T07:06:31.314Z,35.95
2018-01-11T07:08:59.094Z,32.42
2018-01-11T07:11:26.868Z,34.08
2018-01-11T07:13:55.263Z,33.53
2018-01-11T07:16:22.878Z,29.58
2018-01-11T07:18:51.513Z,30.88
2018-01-11T07:21:19.120Z,28.58
2018-01-11T07:23:46.769Z,26.17
2018-01-11T07:26:15.268Z,31.77
2018-01-11T07:28:42.910Z,31.33
2018-01-11T07:31:10.809Z,20.85
2018-01-11T07:33:38.739Z,29.48
2018-01-11T07:36:07.479Z,22.15
2018-01-11T07:38:35.441Z,28.10
2018-01-11T07:41:03.354Z,23.27
2018-01-11T07:43:31.364Z,23.12
2018-01-11T07:45:59.296Z,21.05
2018-01-11T07:48:27.041Z,21.02
2018-01-11T07:50:54.667Z,20.08
2018-01-11T07:53:22.287Z,21.42
2018-01-11T07:55:49.946Z,24.75
2018-01-11T07:58:17.568Z,19.60
2018-01-11T08:00:45.183Z,20.77
2018-01-11T08:03:12.780Z,20.02
2018-01-11T08:05:40.432Z,20.95
2018-01-11T08:08:08.033Z,20.92
2018-01-11T08:10:35.632Z,27.87
2018-01-11T08:13:03.257Z,21.77
2018-01-11T08:15:30.889Z,27.23
2018-01-11T08:17:58.517Z,24.23
2018-01-11T08:20:27.623Z,19.52
2018-01-11T08:22:55.995Z,17.52
2018-01-11T08:25:24.357Z,17.67
2018-01-11T08:27:51.955Z,16.30
2018-01-11T08:30:21.348Z,18.30
2018-01-11T08:32:49.710Z,17.30
2018-01-11T08:35:17.354Z,15.15
2018-01-11T08:37:45.027Z,15.32
2018-01-11T08:40:12.934Z,19.77
2018-01-11T08:42:41.313Z,19.87
2018-01-11T08:45:09.668Z,15.07
2018-01-11T08:47:37.284Z,13.55
2018-01-11T08:50:05.665Z,17.23
2018-01-11T08:52:35.112Z,14.18
2018-01-11T08:55:02.718Z,13.90
2018-01-11T08:57:30.329Z,13.10
2018-01-11T08:59:58.912Z,12.30
2018-01-11T09:02:26.546Z,13.75
2018-01-11T09:04:54.929Z,12.55
2018-01-11T09:07:23.335Z,15.23
2018-01-11T09:09:50.917Z,12.10
2018-01-11T09:12:18.550Z,12.88
2018-01-11T09:14:46.941Z,11.18
2018-01-11T09:17:14.555Z,10.90
2018-01-11T09:19:42.249Z,10.73
2018-01-11T09:22:09.815Z,9.68
2018-01-11T09:24:37.458Z,14.00
2018-01-11T09:27:05.046Z,12.23
2018-01-11T09:29:32.688Z,16.80
2018-01-11T09:32:00.277Z,10.67
2018-01-11T09:34:27.887Z,16.40
2018-01-11T09:36:55.554Z,11.93
2018-01-11T09:39:23.160Z,13.63
2018-01-11T09:41:50.776Z,16.57
2018-01-11T09:44:18.370Z,16.60
2018-01-11T09:46:45.965Z,19.63
2018-01-11T09:49:13.591Z,14.63
2018-01-11T09:51:41.218Z,19.10
2018-01-11T09:54:08.812Z,14.70
2018-01-11T09:56:36.421Z,24.37
2018-01-11T09:59:04.060Z,26.10
2018-01-11T10:01:31.657Z,26.70
2018-01-11T10:03:59.301Z,24.10
2018-01-11T10:06:26.886Z,28.80
2018-01-11T10:08:54.543Z,23.13
2018-01-11T10:11:22.226Z,23.47
2018-01-11T10:13:49.857Z,26.13
2018-01-11T10:16:17.511Z,21.33
2018-01-11T10:18:45.107Z,21.00
2018-01-11T10:21:12.760Z,22.10
2018-01-11T10:23:40.352Z,18.57
2018-01-11T10:26:07.980Z,28.57
2018-01-11T10:28:35.612Z,19.90
2018-01-11T10:31:03.988Z,17.93
2018-01-11T10:33:32.378Z,20.13
2018-01-11T10:36:02.039Z,19.07
2018-01-11T10:38:29.623Z,19.10
2018-01-11T10:40:57.249Z,18.40
2018-01-11T10:43:24.869Z,20.73
2018-01-11T10:45:52.484Z,22.97
2018-01-11T10:48:20.109Z,23.20
2018-01-11T10:50:48.503Z,27.85
2018-01-11T10:53:16.873Z,32.53
2018-01-11T10:55:44.617Z,31.90
2018-01-11T10:58:12.249Z,31.40
2018-01-11T11:00:45.447Z,27.57
2018-01-11T11:03:13.223Z,31.90
2018-01-11T11:05:41.563Z,30.73
2018-01-11T11:08:09.931Z,28.77
2018-01-11T11:10:37.568Z,25.10
2018-01-11T11:13:05.202Z,23.60
2018-01-11T11:15:32.831Z,22.67
2018-01-11T11:18:00.453Z,24.10
2018-01-11T11:20:28.091Z,27.20
2018-01-11T11:22:56.469Z,28.50
2018-01-11T11:25:25.694Z,26.10
2018-01-11T11:27:53.359Z,22.97
2018-01-11T11:30:20.967Z,24.13
2018-01-11T11:32:48.624Z,31.73
2018-01-11T11:35:16.211Z,22.97
2018-01-11T11:37:44.127Z,25.13
2018-01-11T11:40:11.721Z,23.43
2018-01-11T11:42:39.330Z,24.30
2018-01-11T11:45:07.710Z,29.63
2018-01-11T11:47:35.336Z,25.03
2018-01-11T11:50:03.009Z,26.73
2018-01-11T11:52:30.635Z,28.40
2018-01-11T11:54:58.257Z,23.87
2018-01-11T11:57:25.849Z,27.43
2018-01-11T11:59:54.242Z,23.70
2018-01-11T12:02:22.627Z,25.73
2018-01-11T12:04:51.029Z,25.40
2018-01-11T12:07:18.652Z,29.70
2018-01-11T12:09:46.256Z,30.03
2018-01-11T12:12:13.913Z,25.70
2018-01-11T12:14:41.546Z,22.57
2018-01-11T12:17:09.192Z,27.00
2018-01-11T12:19:36.798Z,24.63
2018-01-11T12:22:05.173Z,26.50
2018-01-11T12:24:32.796Z,21.30
2018-01-11T12:27:00.439Z,20.70
2018-01-11T12:29:28.033Z,21.73
2018-01-11T12:31:55.729Z,27.73
2018-01-11T12:34:23.348Z,23.57
2018-01-11T12:36:51.005Z,23.73
2018-01-11T12:39:18.640Z,22.57
2018-01-11T12:41:47.010Z,19.93
2018-01-11T12:44:14.628Z,19.50
2018-01-11T12:46:42.223Z,23.60
2018-01-11T12:49:09.834Z,26.10
2018-01-11T12:51:38.239Z,24.27
2018-01-11T12:54:05.885Z,22.00
2018-01-11T12:56:34.266Z,24.03
2018-01-11T12:59:02.628Z,27.73
2018-01-11T13:01:30.242Z,23.93
2018-01-11T13:03:57.857Z,25.27
2018-01-11T13:06:25.476Z,22.23
2018-01-11T13:08:53.110Z,24.93
2018-01-11T13:11:21.490Z,30.90
2018-01-11T13:13:49.887Z,25.43
2018-01-11T13:16:18.232Z,23.77
2018-01-11T13:18:45.873Z,28.13
2018-01-11T13:21:13.913Z,25.87
2018-01-11T13:23:41.629Z,27.77
2018-01-11T13:26:09.256Z,28.20
2018-01-11T13:28:36.914Z,24.60
2018-01-11T13:31:05.279Z,28.43
2018-01-11T13:33:33.664Z,29.80
2018-01-11T13:36:02.064Z,24.83
2018-01-11T13:38:29.673Z,28.30
2018-01-11T13:40:57.289Z,27.07
2018-01-11T13:43:25.675Z,30.43
2018-01-11T13:45:53.322Z,28.67
2018-01-11T13:48:20.936Z,31.50
2018-01-11T13:50:48.541Z,33.27
2018-01-11T13:53:16.180Z,29.97
2018-01-11T13:55:43.840Z,27.93
2018-01-11T13:58:11.483Z,33.73
2018-01-11T14:00:39.395Z,33.40
2018-01-11T14:03:07.282Z,30.93
2018-01-11T14:05:35.867Z,33.63
2018-01-11T14:08:03.638Z,32.60
2018-01-11T14:10:31.475Z,29.43
2018-01-11T14:12:59.444Z,30.15
2018-01-11T14:15:27.078Z,33.97
2018-01-11T14:17:54.732Z,34.50
2018-01-11T14:20:22.355Z,34.15
2018-01-11T14:22:49.978Z,31.33
2018-01-11T14:25:18.391Z,34.73
2018-01-11T14:27:45.996Z,32.63
2018-01-11T14:30:13.613Z,34.88
2018-01-11T14:32:41.249Z,33.65
2018-01-11T14:35:09.646Z,36.03
2018-01-11T14:37:38.002Z,32.20
2018-01-11T14:40:06.401Z,36.50
2018-01-11T14:42:34.018Z,32.10
2018-01-11T14:45:01.948Z,36.17
2018-01-11T14:47:29.634Z,36.67
2018-01-11T14:49:57.309Z,32.67
2018-01-11T14:52:25.054Z,42.25
2018-01-11T14:54:55.324Z,36.70
2018-01-11T14:57:24.954Z,39.47
2018-01-11T14:59:53.655Z,32.78
2018-01-11T15:02:22.385Z,42.67
2018-01-11T15:04:50.024Z,37.83
2018-01-11T15:07:18.470Z,43.55
2018-01-11T15:09:52.089Z,41.80
2018-01-11T15:12:21.890Z,41.20
2018-01-11T15:14:50.949Z,48.00
2018-01-11T15:17:23.507Z,45.70
2018-01-11T15:19:51.865Z,48.00
2018-01-11T15:22:21.405Z,56.25
2018-01-11T15:24:50.546Z,53.70
2018-01-11T15:27:24.464Z,52.75
2018-01-11T15:29:54.984Z,58.28
2018-01-11T15:32:23.278Z,62.67
2018-01-11T15:34:53.635Z,54.20
2018-01-11T15:37:23.900Z,58.53
2018-01-11T15:39:55.589Z,58.00
2018-01-11T15:42:25.516Z,58.38
2018-01-11T15:44:55.550Z,52.50
2018-01-11T15:47:23.528Z,59.67
2018-01-11T15:49:51.617Z,60.45
2018-01-11T15:52:21.723Z,61.42
2018-01-11T15:54:52.160Z,58.97
2018-01-11T15:57:21.044Z,57.65
2018-01-11T15:59:54.731Z,59.30
2018-01-11T16:02:24.382Z,54.53
2018-01-11T16:04:54.681Z,68.62
2018-01-11T16:07:25.847Z,73.75
2018-01-11T16:09:59.074Z,68.53
2018-01-11T16:12:26.949Z,69.22
2018-01-11T16:14:54.644Z,61.97
2018-01-11T16:17:26.926Z,75.90
2018-01-11T16:19:56.503Z,73.78
2018-01-11T16:22:24.458Z,72.85
2018-01-11T16:24:53.844Z,65.45
2018-01-11T16:27:23.040Z,65.50
2018-01-11T16:29:51.102Z,68.60
2018-01-11T16:32:20.693Z,63.50
2018-01-11T16:34:48.456Z,65.00
2018-01-11T16:37:16.078Z,72.37
2018-01-11T16:39:43.715Z,69.15
2018-01-11T16:42:12.186Z,65.45
2018-01-11T16:44:39.906Z,70.57
2018-01-11T16:47:08.710Z,69.28
2018-01-11T16:49:37.078Z,67.05
2018-01-11T16:52:11.610Z,74.87
2018-01-11T16:54:39.378Z,67.35
2018-01-11T16:57:07.973Z,72.32
2018-01-11T16:59:36.345Z,74.97
2018-01-11T17:02:04.734Z,84.70
2018-01-11T17:04:33.530Z,72.45
2018-01-11T17:07:01.885Z,89.25
2018-01-11T17:09:29.524Z,88.60
2018-01-11T17:11:57.137Z,86.37
2018-01-11T17:14:26.677Z,90.75
2018-01-11T17:16:54.297Z,90.82
2018-01-11T17:19:23.001Z,71.35
2018-01-11T17:21:51.444Z,72.57
2018-01-11T17:24:19.042Z,76.15
2018-01-11T17:26:46.806Z,72.45
2018-01-11T17:29:14.428Z,75.60
2018-01-11T17:31:43.074Z,91.80
2018-01-11T17:34:11.790Z,113.28
2018-01-11T17:36:39.448Z,96.45
2018-01-11T17:39:07.822Z,119.43
2018-01-11T17:41:36.211Z,89.78
2018-01-11T17:44:04.586Z,92.12
2018-01-11T17:46:32.258Z,88.85
2018-01-11T17:49:01.277Z,107.47
2018-01-11T17:51:28.892Z,101.80
2018-01-11T17:53:56.535Z,88.28
2018-01-11T17:56:24.152Z,70.37
2018-01-11T17:58:52.542Z,73.65
2018-01-11T18:01:20.948Z,82.03
2018-01-11T18:03:48.636Z,90.15
2018-01-11T18:06:16.290Z,72.30
2018-01-11T18:08:43.920Z,96.70
2018-01-11T18:11:11.608Z,76.78
2018-01-11T18:13:40.188Z,95.15
2018-01-11T18:16:08.071Z,99.90
2018-01-11T18:18:36.526Z,103.50
2018-01-11T18:21:04.478Z,116.72
2018-01-11T18:23:32.293Z,132.23
2018-01-11T18:26:00.762Z,100.22
2018-01-11T18:28:29.146Z,98.45
2018-01-11T18:30:57.548Z,124.40
2018-01-11T18:33:25.252Z,107.35
2018-01-11T18:35:52.867Z,95.38
2018-01-11T18:38:21.276Z,118.87
2018-01-11T18:40:48.875Z,92.05
2018-01-11T18:43:16.507Z,88.12
2018-01-11T18:45:44.126Z,101.53
2018-01-11T18:48:11.746Z,111.03
2018-01-11T18:50:40.376Z,98.12
2018-01-11T18:53:07.991Z,87.72
2018-01-11T18:55:35.643Z,147.32
2018-01-11T18:58:04.034Z,139.05
2018-01-11T19:00:31.664Z,92.18
2018-01-11T19:02:59.599Z,98.25
2018-01-11T19:05:27.242Z,91.40
2018-01-11T19:07:54.875Z,85.78
2018-01-11T19:10:22.486Z,87.88
2018-01-11T19:12:50.338Z,97.95
2018-01-11T19:15:17.942Z,100.05
2018-01-11T19:17:45.593Z,92.68
2018-01-11T19:20:13.340Z,74.50
2018-01-11T19:22:41.296Z,77.05
2018-01-11T19:25:08.922Z,131.30
2018-01-11T19:27:36.551Z,101.53
2018-01-11T19:30:04.380Z,100.72
2018-01-11T19:32:32.012Z,289.63
2018-01-11T19:34:59.692Z,197.30
2018-01-11T19:37:27.299Z,239.02
2018-01-11T19:39:54.954Z,123.93
2018-01-11T19:42:22.595Z,294.95
2018-01-11T19:44:50.661Z,211.37
2018-01-11T19:47:18.297Z,161.68
2018-01-11T19:49:45.962Z,240.05
2018-01-11T19:52:14.762Z,184.43
2018-01-11T19:54:42.392Z,161.73
2018-01-11T19:57:10.023Z,121.47
2018-01-11T19:59:37.632Z,190.15
2018-01-11T20:02:07.322Z,201.05
2018-01-11T20:04:34.944Z,209.12
2018-01-11T20:07:02.588Z,145.10
2018-01-11T20:09:30.212Z,270.02
2018-01-11T20:11:59.302Z,228.40
2018-01-11T20:14:28.448Z,178.90
2018-01-11T20:16:59.458Z,192.05
2018-01-11T20:19:27.881Z,141.45
2018-01-11T20:21:55.539Z,172.55
2018-01-11T20:24:23.170Z,122.00
2018-01-11T20:26:50.752Z,169.20
2018-01-11T20:29:18.395Z,136.68
2018-01-11T20:31:46.397Z,164.13
2018-01-11T20:34:14.384Z,191.43
2018-01-11T20:36:42.878Z,163.90
2018-01-11T20:39:11.517Z,223.00
2018-01-11T20:41:39.112Z,180.48
2018-01-11T20:44:06.734Z,185.12
2018-01-11T20:46:34.639Z,151.43
2018-01-11T20:49:02.510Z,150.52
2018-01-11T20:51:31.161Z,181.25
2018-01-11T20:53:58.781Z,170.10
2018-01-11T20:56:26.450Z,136.80
2018-01-11T20:58:54.141Z,176.18
2018-01-11T21:01:21.867Z,138.65
2018-01-11T21:03:52.798Z,184.35
2018-01-11T21:06:20.564Z,92.20
2018-01-11T21:08:48.539Z,128.07
2018-01-11T21:11:17.913Z,114.37
2018-01-11T21:13:45.577Z,106.60
2018-01-11T21:25:58.762Z,132.95
2018-01-11T21:28:39.832Z,111.15
2018-01-11T21:38:06.841Z,126.38
2018-01-11T21:40:34.698Z,86.37
2018-01-11T21:43:02.455Z,113.45
2018-01-11T21:45:31.504Z,79.47
2018-01-11T21:47:59.836Z,80.93
2018-01-11T21:50:30.288Z,97.62
2018-01-11T21:52:58.476Z,71.95
2018-01-11T21:55:31.114Z,71.55
2018-01-11T21:57:59.079Z,67.65
2018-01-11T22:00:26.664Z,78.95
2018-01-11T22:02:55.074Z,64.10
2018-01-11T22:05:30.508Z,80.15
2018-01-11T22:08:01.158Z,79.47
2018-01-11T22:10:32.556Z,83.57
2018-01-11T22:13:00.218Z,69.28
2018-01-11T22:15:28.606Z,69.78
2018-01-11T22:17:56.972Z,80.60
2018-01-11T22:20:25.340Z,97.75
2018-01-11T22:22:52.973Z,94.57
2018-01-11T22:25:20.632Z,91.05
2018-01-11T22:27:48.260Z,98.03
2018-01-11T22:30:16.652Z,90.12
2018-01-11T22:32:45.028Z,73.15
2018-01-11T22:35:13.420Z,113.60
2018-01-11T22:37:41.795Z,96.47
2018-01-11T22:40:10.181Z,90.30
2018-01-11T22:42:38.551Z,89.75
2018-01-11T22:45:06.941Z,87.93
2018-01-11T22:47:35.436Z,75.18
2018-01-11T22:50:03.116Z,94.57
2018-01-11T22:52:30.752Z,101.35
2018-01-11T22:54:59.408Z,108.28
2018-01-11T22:57:27.069Z,111.07
2018-01-11T22:59:54.653Z,107.18
2018-01-11T23:02:22.320Z,86.50
2018-01-11T23:04:49.913Z,89.00
2018-01-11T23:07:18.265Z,86.05
2018-01-11T23:09:45.891Z,110.10
2018-01-11T23:12:13.524Z,90.10
2018-01-11T23:14:41.926Z,107.12
2018-01-11T23:17:09.510Z,104.40
2018-01-11T23:19:37.142Z,105.32
2018-01-11T23:22:05.538Z,99.40
2018-01-11T23:24:33.966Z,111.82
2018-01-11T23:27:01.599Z,100.18
2018-01-11T23:29:29.221Z,89.93
2018-01-11T23:31:56.824Z,106.70
2018-01-11T23:34:25.182Z,97.93
2018-01-11T23:36:52.778Z,97.15
2018-01-11T23:39:21.200Z,119.87
2018-01-11T23:41:48.846Z,105.28
2018-01-11T23:44:16.459Z,100.72
2018-01-11T23:46:44.094Z,106.32
2018-01-11T23:49:11.706Z,97.32
2018-01-11T23:51:39.346Z,82.47
2018-01-11T23:54:06.952Z,94.68
2018-01-11T23:56:35.324Z,88.37
2018-01-11T23:59:03.739Z,83.45
